sensor_id;sensor_type;location;lat;lon;timestamp;P1;durP1;ratioP1;P2;durP2;ratioP2
75012;SDS011;63567;49.956;20.130;2023-09-19T00:01:12;8.95;;;8.15;;
75012;SDS011;63567;49.956;20.130;2023-09-19T00:03:37;10.00;;;9.03;;
75012;SDS011;63567;49.956;20.130;2023-09-19T00:06:03;9.75;;;8.85;;
75012;SDS011;63567;49.956;20.130;2023-09-19T00:08:30;9.25;;;8.45;;
75012;SDS011;63567;49.956;20.130;2023-09-19T00:10:58;9.25;;;8.43;;
75012;SDS011;63567;49.956;20.130;2023-09-19T00:13:30;8.85;;;8.05;;
75012;SDS011;63567;49.956;20.130;2023-09-19T00:16:00;8.60;;;7.70;;
75012;SDS011;63567;49.956;20.130;2023-09-19T00:18:26;9.55;;;8.73;;
75012;SDS011;63567;49.956;20.130;2023-09-19T00:20:57;8.88;;;8.07;;
75012;SDS011;63567;49.956;20.130;2023-09-19T00:23:23;8.85;;;7.95;;
75012;SDS011;63567;49.956;20.130;2023-09-19T00:25:49;9.65;;;8.75;;
75012;SDS011;63567;49.956;20.130;2023-09-19T00:28:15;9.43;;;8.52;;
75012;SDS011;63567;49.956;20.130;2023-09-19T00:30:44;9.68;;;8.77;;
75012;SDS011;63567;49.956;20.130;2023-09-19T00:33:14;9.60;;;8.70;;
75012;SDS011;63567;49.956;20.130;2023-09-19T00:35:50;9.90;;;8.90;;
75012;SDS011;63567;49.956;20.130;2023-09-19T00:38:17;10.68;;;9.57;;
75012;SDS011;63567;49.956;20.130;2023-09-19T00:40:49;10.10;;;9.13;;
75012;SDS011;63567;49.956;20.130;2023-09-19T00:43:16;8.80;;;7.90;;
75012;SDS011;63567;49.956;20.130;2023-09-19T00:45:42;10.00;;;9.00;;
75012;SDS011;63567;49.956;20.130;2023-09-19T00:48:09;8.57;;;7.68;;
75012;SDS011;63567;49.956;20.130;2023-09-19T00:50:35;9.80;;;8.90;;
75012;SDS011;63567;49.956;20.130;2023-09-19T00:53:01;10.90;;;9.77;;
75012;SDS011;63567;49.956;20.130;2023-09-19T00:55:32;10.60;;;9.60;;
75012;SDS011;63567;49.956;20.130;2023-09-19T00:57:59;10.77;;;9.68;;
75012;SDS011;63567;49.956;20.130;2023-09-19T01:00:25;10.63;;;9.52;;
75012;SDS011;63567;49.956;20.130;2023-09-19T01:02:50;10.13;;;8.05;;
75012;SDS011;63567;49.956;20.130;2023-09-19T01:05:15;11.87;;;10.67;;
75012;SDS011;63567;49.956;20.130;2023-09-19T01:07:41;10.85;;;9.88;;
75012;SDS011;63567;49.956;20.130;2023-09-19T01:10:08;10.05;;;9.05;;
75012;SDS011;63567;49.956;20.130;2023-09-19T01:12:43;11.18;;;10.07;;
75012;SDS011;63567;49.956;20.130;2023-09-19T01:15:21;11.35;;;10.27;;
75012;SDS011;63567;49.956;20.130;2023-09-19T01:24:31;10.45;;;9.55;;
75012;SDS011;63567;49.956;20.130;2023-09-19T01:29:48;11.15;;;10.05;;
75012;SDS011;63567;49.956;20.130;2023-09-19T01:32:16;11.50;;;10.40;;
75012;SDS011;63567;49.956;20.130;2023-09-19T01:34:47;10.90;;;9.80;;
75012;SDS011;63567;49.956;20.130;2023-09-19T01:37:18;10.77;;;9.77;;
75012;SDS011;63567;49.956;20.130;2023-09-19T01:39:50;12.15;;;10.80;;
75012;SDS011;63567;49.956;20.130;2023-09-19T01:42:27;11.40;;;10.30;;
75012;SDS011;63567;49.956;20.130;2023-09-19T01:44:57;11.10;;;9.80;;
75012;SDS011;63567;49.956;20.130;2023-09-19T01:47:32;11.18;;;9.57;;
75012;SDS011;63567;49.956;20.130;2023-09-19T01:52:46;11.40;;;10.40;;
75012;SDS011;63567;49.956;20.130;2023-09-19T01:55:14;11.48;;;10.32;;
75012;SDS011;63567;49.956;20.130;2023-09-19T01:57:49;11.02;;;9.55;;
75012;SDS011;63567;49.956;20.130;2023-09-19T02:00:23;11.27;;;10.18;;
75012;SDS011;63567;49.956;20.130;2023-09-19T02:02:50;11.70;;;10.55;;
75012;SDS011;63567;49.956;20.130;2023-09-19T02:05:23;12.07;;;10.98;;
75012;SDS011;63567;49.956;20.130;2023-09-19T02:07:50;10.73;;;9.73;;
75012;SDS011;63567;49.956;20.130;2023-09-19T02:10:15;11.13;;;10.00;;
75012;SDS011;63567;49.956;20.130;2023-09-19T02:12:42;11.57;;;10.48;;
75012;SDS011;63567;49.956;20.130;2023-09-19T02:15:07;12.03;;;10.30;;
75012;SDS011;63567;49.956;20.130;2023-09-19T02:17:34;11.13;;;10.02;;
75012;SDS011;63567;49.956;20.130;2023-09-19T02:19:59;11.30;;;10.20;;
75012;SDS011;63567;49.956;20.130;2023-09-19T02:22:25;12.48;;;11.27;;
75012;SDS011;63567;49.956;20.130;2023-09-19T02:24:51;11.87;;;10.53;;
75012;SDS011;63567;49.956;20.130;2023-09-19T02:27:17;10.93;;;9.82;;
75012;SDS011;63567;49.956;20.130;2023-09-19T02:29:42;11.30;;;10.20;;
75012;SDS011;63567;49.956;20.130;2023-09-19T02:32:08;11.57;;;10.47;;
75012;SDS011;63567;49.956;20.130;2023-09-19T02:34:34;12.05;;;10.85;;
75012;SDS011;63567;49.956;20.130;2023-09-19T02:37:01;11.70;;;10.60;;
75012;SDS011;63567;49.956;20.130;2023-09-19T02:39:29;11.27;;;10.18;;
75012;SDS011;63567;49.956;20.130;2023-09-19T02:41:55;11.98;;;10.90;;
75012;SDS011;63567;49.956;20.130;2023-09-19T02:44:20;10.20;;;9.00;;
75012;SDS011;63567;49.956;20.130;2023-09-19T02:46:45;11.73;;;10.63;;
75012;SDS011;63567;49.956;20.130;2023-09-19T02:49:11;11.57;;;10.43;;
75012;SDS011;63567;49.956;20.130;2023-09-19T02:51:38;12.02;;;10.82;;
75012;SDS011;63567;49.956;20.130;2023-09-19T02:54:03;12.20;;;10.90;;
75012;SDS011;63567;49.956;20.130;2023-09-19T02:56:28;12.77;;;10.73;;
75012;SDS011;63567;49.956;20.130;2023-09-19T02:58:55;12.02;;;10.93;;
75012;SDS011;63567;49.956;20.130;2023-09-19T03:01:21;11.98;;;9.40;;
75012;SDS011;63567;49.956;20.130;2023-09-19T03:03:47;12.32;;;11.02;;
75012;SDS011;63567;49.956;20.130;2023-09-19T03:06:12;10.93;;;9.83;;
75012;SDS011;63567;49.956;20.130;2023-09-19T03:08:40;12.60;;;9.35;;
75012;SDS011;63567;49.956;20.130;2023-09-19T03:11:07;11.10;;;9.82;;
75012;SDS011;63567;49.956;20.130;2023-09-19T03:13:34;12.52;;;11.32;;
75012;SDS011;63567;49.956;20.130;2023-09-19T03:16:02;11.23;;;9.98;;
75012;SDS011;63567;49.956;20.130;2023-09-19T03:18:30;11.90;;;10.80;;
75012;SDS011;63567;49.956;20.130;2023-09-19T03:20:57;13.23;;;11.93;;
75012;SDS011;63567;49.956;20.130;2023-09-19T03:23:24;13.10;;;11.77;;
75012;SDS011;63567;49.956;20.130;2023-09-19T03:25:51;10.73;;;9.45;;
75012;SDS011;63567;49.956;20.130;2023-09-19T03:28:17;12.38;;;11.07;;
75012;SDS011;63567;49.956;20.130;2023-09-19T03:30:43;10.73;;;9.55;;
75012;SDS011;63567;49.956;20.130;2023-09-19T03:33:08;11.68;;;10.48;;
75012;SDS011;63567;49.956;20.130;2023-09-19T03:35:35;12.20;;;11.02;;
75012;SDS011;63567;49.956;20.130;2023-09-19T03:38:01;11.15;;;10.05;;
75012;SDS011;63567;49.956;20.130;2023-09-19T03:40:28;11.15;;;10.15;;
75012;SDS011;63567;49.956;20.130;2023-09-19T03:42:53;11.07;;;9.93;;
75012;SDS011;63567;49.956;20.130;2023-09-19T03:45:18;10.85;;;9.75;;
75012;SDS011;63567;49.956;20.130;2023-09-19T03:47:44;10.03;;;9.03;;
75012;SDS011;63567;49.956;20.130;2023-09-19T03:50:12;11.70;;;10.60;;
75012;SDS011;63567;49.956;20.130;2023-09-19T03:52:40;10.80;;;9.18;;
75012;SDS011;63567;49.956;20.130;2023-09-19T03:55:05;11.57;;;10.47;;
75012;SDS011;63567;49.956;20.130;2023-09-19T03:57:31;12.10;;;10.90;;
75012;SDS011;63567;49.956;20.130;2023-09-19T03:59:56;12.00;;;10.38;;
75012;SDS011;63567;49.956;20.130;2023-09-19T04:02:22;11.43;;;10.23;;
75012;SDS011;63567;49.956;20.130;2023-09-19T04:04:51;11.30;;;10.10;;
75012;SDS011;63567;49.956;20.130;2023-09-19T04:09:42;11.70;;;10.50;;
75012;SDS011;63567;49.956;20.130;2023-09-19T04:12:07;12.20;;;10.90;;
75012;SDS011;63567;49.956;20.130;2023-09-19T04:14:36;10.38;;;8.95;;
75012;SDS011;63567;49.956;20.130;2023-09-19T04:17:01;11.53;;;10.53;;
75012;SDS011;63567;49.956;20.130;2023-09-19T04:19:27;10.75;;;9.73;;
75012;SDS011;63567;49.956;20.130;2023-09-19T04:21:52;11.33;;;10.13;;
75012;SDS011;63567;49.956;20.130;2023-09-19T04:24:17;8.90;;;8.00;;
75012;SDS011;63567;49.956;20.130;2023-09-19T04:26:44;11.57;;;10.40;;
75012;SDS011;63567;49.956;20.130;2023-09-19T04:29:09;11.48;;;10.38;;
75012;SDS011;63567;49.956;20.130;2023-09-19T04:31:38;10.88;;;9.77;;
75012;SDS011;63567;49.956;20.130;2023-09-19T04:34:05;11.90;;;10.80;;
75012;SDS011;63567;49.956;20.130;2023-09-19T04:36:33;11.30;;;10.30;;
75012;SDS011;63567;49.956;20.130;2023-09-19T04:39:00;11.32;;;10.15;;
75012;SDS011;63567;49.956;20.130;2023-09-19T04:41:25;12.30;;;11.10;;
75012;SDS011;63567;49.956;20.130;2023-09-19T04:43:50;11.70;;;10.60;;
75012;SDS011;63567;49.956;20.130;2023-09-19T04:46:16;11.50;;;10.40;;
75012;SDS011;63567;49.956;20.130;2023-09-19T04:48:42;11.77;;;10.57;;
75012;SDS011;63567;49.956;20.130;2023-09-19T04:51:08;11.85;;;10.65;;
75012;SDS011;63567;49.956;20.130;2023-09-19T04:53:33;12.37;;;11.07;;
75012;SDS011;63567;49.956;20.130;2023-09-19T04:55:58;12.03;;;10.93;;
75012;SDS011;63567;49.956;20.130;2023-09-19T04:58:24;12.03;;;10.93;;
75012;SDS011;63567;49.956;20.130;2023-09-19T05:00:49;13.13;;;11.93;;
75012;SDS011;63567;49.956;20.130;2023-09-19T05:03:16;11.38;;;10.07;;
75012;SDS011;63567;49.956;20.130;2023-09-19T05:05:42;11.05;;;9.93;;
75012;SDS011;63567;49.956;20.130;2023-09-19T05:08:07;9.82;;;8.82;;
75012;SDS011;63567;49.956;20.130;2023-09-19T05:10:34;11.85;;;10.45;;
75012;SDS011;63567;49.956;20.130;2023-09-19T05:13:02;11.77;;;10.57;;
75012;SDS011;63567;49.956;20.130;2023-09-19T05:15:30;10.27;;;9.18;;
75012;SDS011;63567;49.956;20.130;2023-09-19T05:17:55;13.05;;;11.85;;
75012;SDS011;63567;49.956;20.130;2023-09-19T05:20:21;11.23;;;10.13;;
75012;SDS011;63567;49.956;20.130;2023-09-19T05:23:00;12.82;;;11.63;;
75012;SDS011;63567;49.956;20.130;2023-09-19T05:25:27;11.77;;;10.57;;
75012;SDS011;63567;49.956;20.130;2023-09-19T05:30:30;11.48;;;10.18;;
75012;SDS011;63567;49.956;20.130;2023-09-19T05:32:55;11.97;;;10.87;;
75012;SDS011;63567;49.956;20.130;2023-09-19T05:35:23;9.85;;;8.85;;
75012;SDS011;63567;49.956;20.130;2023-09-19T05:37:50;12.70;;;11.45;;
75012;SDS011;63567;49.956;20.130;2023-09-19T05:40:17;11.32;;;9.35;;
75012;SDS011;63567;49.956;20.130;2023-09-19T05:42:43;11.18;;;10.07;;
75012;SDS011;63567;49.956;20.130;2023-09-19T05:45:09;13.32;;;12.05;;
75012;SDS011;63567;49.956;20.130;2023-09-19T05:47:37;13.52;;;12.20;;
75012;SDS011;63567;49.956;20.130;2023-09-19T05:50:02;13.48;;;12.23;;
75012;SDS011;63567;49.956;20.130;2023-09-19T05:52:30;12.73;;;10.43;;
75012;SDS011;63567;49.956;20.130;2023-09-19T05:54:55;13.13;;;11.87;;
75012;SDS011;63567;49.956;20.130;2023-09-19T05:57:21;12.82;;;11.63;;
75012;SDS011;63567;49.956;20.130;2023-09-19T05:59:47;13.50;;;12.25;;
75012;SDS011;63567;49.956;20.130;2023-09-19T06:02:14;12.40;;;11.20;;
75012;SDS011;63567;49.956;20.130;2023-09-19T06:04:40;14.40;;;13.02;;
75012;SDS011;63567;49.956;20.130;2023-09-19T06:07:05;12.35;;;10.38;;
75012;SDS011;63567;49.956;20.130;2023-09-19T06:09:31;10.95;;;9.77;;
75012;SDS011;63567;49.956;20.130;2023-09-19T06:11:57;12.57;;;11.25;;
75012;SDS011;63567;49.956;20.130;2023-09-19T06:14:22;13.95;;;12.65;;
75012;SDS011;63567;49.956;20.130;2023-09-19T06:16:49;12.88;;;11.52;;
75012;SDS011;63567;49.956;20.130;2023-09-19T06:19:14;13.77;;;12.43;;
75012;SDS011;63567;49.956;20.130;2023-09-19T06:21:40;12.50;;;11.30;;
75012;SDS011;63567;49.956;20.130;2023-09-19T06:24:05;12.73;;;11.53;;
75012;SDS011;63567;49.956;20.130;2023-09-19T06:26:31;13.02;;;11.68;;
75012;SDS011;63567;49.956;20.130;2023-09-19T06:28:57;12.65;;;11.35;;
75012;SDS011;63567;49.956;20.130;2023-09-19T06:31:22;12.27;;;11.07;;
75012;SDS011;63567;49.956;20.130;2023-09-19T06:33:51;13.30;;;11.98;;
75012;SDS011;63567;49.956;20.130;2023-09-19T06:36:16;13.18;;;11.88;;
75012;SDS011;63567;49.956;20.130;2023-09-19T06:38:42;13.43;;;12.05;;
75012;SDS011;63567;49.956;20.130;2023-09-19T06:41:07;14.90;;;13.38;;
75012;SDS011;63567;49.956;20.130;2023-09-19T06:43:34;13.77;;;12.35;;
75012;SDS011;63567;49.956;20.130;2023-09-19T06:46:00;13.82;;;12.45;;
75012;SDS011;63567;49.956;20.130;2023-09-19T06:48:26;12.80;;;11.18;;
75012;SDS011;63567;49.956;20.130;2023-09-19T06:50:55;11.75;;;10.18;;
75012;SDS011;63567;49.956;20.130;2023-09-19T06:53:24;12.38;;;10.32;;
75012;SDS011;63567;49.956;20.130;2023-09-19T06:55:50;12.05;;;10.88;;
75012;SDS011;63567;49.956;20.130;2023-09-19T06:58:15;11.80;;;10.60;;
75012;SDS011;63567;49.956;20.130;2023-09-19T07:00:41;13.05;;;11.75;;
75012;SDS011;63567;49.956;20.130;2023-09-19T07:03:07;12.52;;;11.23;;
75012;SDS011;63567;49.956;20.130;2023-09-19T07:05:37;13.35;;;12.05;;
75012;SDS011;63567;49.956;20.130;2023-09-19T07:08:04;12.48;;;11.30;;
75012;SDS011;63567;49.956;20.130;2023-09-19T07:10:31;10.82;;;9.73;;
75012;SDS011;63567;49.956;20.130;2023-09-19T07:15:26;12.45;;;11.32;;
75012;SDS011;63567;49.956;20.130;2023-09-19T07:17:52;13.55;;;12.27;;
75012;SDS011;63567;49.956;20.130;2023-09-19T07:20:19;13.07;;;11.82;;
75012;SDS011;63567;49.956;20.130;2023-09-19T07:22:44;12.60;;;11.32;;
75012;SDS011;63567;49.956;20.130;2023-09-19T07:25:10;13.02;;;11.82;;
75012;SDS011;63567;49.956;20.130;2023-09-19T07:27:35;13.37;;;12.07;;
75012;SDS011;63567;49.956;20.130;2023-09-19T07:30:00;13.67;;;12.27;;
75012;SDS011;63567;49.956;20.130;2023-09-19T07:32:26;13.00;;;11.80;;
75012;SDS011;63567;49.956;20.130;2023-09-19T07:34:51;13.77;;;12.37;;
75012;SDS011;63567;49.956;20.130;2023-09-19T07:37:16;13.27;;;11.98;;
75012;SDS011;63567;49.956;20.130;2023-09-19T07:39:42;13.70;;;12.40;;
75012;SDS011;63567;49.956;20.130;2023-09-19T07:42:08;14.00;;;12.52;;
75012;SDS011;63567;49.956;20.130;2023-09-19T07:44:34;14.02;;;12.70;;
75012;SDS011;63567;49.956;20.130;2023-09-19T07:47:01;11.52;;;10.43;;
75012;SDS011;63567;49.956;20.130;2023-09-19T07:49:28;12.45;;;11.35;;
75012;SDS011;63567;49.956;20.130;2023-09-19T07:51:53;10.95;;;9.95;;
75012;SDS011;63567;49.956;20.130;2023-09-19T07:54:19;9.88;;;8.93;;
75012;SDS011;63567;49.956;20.130;2023-09-19T07:56:45;9.15;;;8.35;;
75012;SDS011;63567;49.956;20.130;2023-09-19T07:59:11;7.37;;;6.73;;
75012;SDS011;63567;49.956;20.130;2023-09-19T08:01:36;8.35;;;7.60;;
75012;SDS011;63567;49.956;20.130;2023-09-19T08:04:02;9.52;;;8.73;;
75012;SDS011;63567;49.956;20.130;2023-09-19T08:06:27;8.82;;;8.05;;
75012;SDS011;63567;49.956;20.130;2023-09-19T08:08:54;7.72;;;7.03;;
75012;SDS011;63567;49.956;20.130;2023-09-19T08:11:20;5.50;;;5.00;;
75012;SDS011;63567;49.956;20.130;2023-09-19T08:13:48;6.25;;;5.65;;
75012;SDS011;63567;49.956;20.130;2023-09-19T08:16:14;5.37;;;4.90;;
75012;SDS011;63567;49.956;20.130;2023-09-19T08:18:40;5.25;;;4.85;;
75012;SDS011;63567;49.956;20.130;2023-09-19T08:21:06;5.47;;;5.07;;
75012;SDS011;63567;49.956;20.130;2023-09-19T08:23:38;3.88;;;3.58;;
75012;SDS011;63567;49.956;20.130;2023-09-19T08:26:04;3.90;;;3.50;;
75012;SDS011;63567;49.956;20.130;2023-09-19T08:28:33;2.35;;;1.88;;
75012;SDS011;63567;49.956;20.130;2023-09-19T08:31:05;3.45;;;3.15;;
75012;SDS011;63567;49.956;20.130;2023-09-19T08:33:31;3.83;;;3.40;;
75012;SDS011;63567;49.956;20.130;2023-09-19T08:35:58;4.78;;;4.35;;
75012;SDS011;63567;49.956;20.130;2023-09-19T08:38:23;3.85;;;3.55;;
75012;SDS011;63567;49.956;20.130;2023-09-19T08:40:49;4.23;;;3.60;;
75012;SDS011;63567;49.956;20.130;2023-09-19T08:43:14;3.70;;;3.38;;
75012;SDS011;63567;49.956;20.130;2023-09-19T08:45:40;4.17;;;3.60;;
75012;SDS011;63567;49.956;20.130;2023-09-19T08:50:30;3.93;;;3.53;;
75012;SDS011;63567;49.956;20.130;2023-09-19T08:52:58;3.83;;;2.78;;
75012;SDS011;63567;49.956;20.130;2023-09-19T08:55:29;3.67;;;3.00;;
75012;SDS011;63567;49.956;20.130;2023-09-19T08:57:59;4.20;;;3.72;;
75012;SDS011;63567;49.956;20.130;2023-09-19T09:00:27;3.97;;;3.42;;
75012;SDS011;63567;49.956;20.130;2023-09-19T09:02:53;3.70;;;3.40;;
75012;SDS011;63567;49.956;20.130;2023-09-19T09:05:20;4.03;;;2.50;;
75012;SDS011;63567;49.956;20.130;2023-09-19T09:07:47;3.70;;;2.90;;
75012;SDS011;63567;49.956;20.130;2023-09-19T09:10:15;4.30;;;3.40;;
75012;SDS011;63567;49.956;20.130;2023-09-19T09:12:41;4.95;;;4.10;;
75012;SDS011;63567;49.956;20.130;2023-09-19T09:15:08;5.15;;;4.65;;
75012;SDS011;63567;49.956;20.130;2023-09-19T09:17:36;6.13;;;5.63;;
75012;SDS011;63567;49.956;20.130;2023-09-19T09:20:02;5.20;;;4.70;;
75012;SDS011;63567;49.956;20.130;2023-09-19T09:22:29;4.78;;;4.32;;
75012;SDS011;63567;49.956;20.130;2023-09-19T09:24:57;5.10;;;4.68;;
75012;SDS011;63567;49.956;20.130;2023-09-19T09:27:30;5.50;;;5.00;;
75012;SDS011;63567;49.956;20.130;2023-09-19T09:29:56;5.40;;;4.68;;
75012;SDS011;63567;49.956;20.130;2023-09-19T09:32:28;5.72;;;5.13;;
75012;SDS011;63567;49.956;20.130;2023-09-19T09:34:59;5.85;;;5.35;;
75012;SDS011;63567;49.956;20.130;2023-09-19T09:37:25;6.72;;;6.00;;
75012;SDS011;63567;49.956;20.130;2023-09-19T09:39:55;6.32;;;5.72;;
75012;SDS011;63567;49.956;20.130;2023-09-19T09:42:35;6.20;;;5.60;;
75012;SDS011;63567;49.956;20.130;2023-09-19T09:45:14;6.40;;;5.80;;
75012;SDS011;63567;49.956;20.130;2023-09-19T09:47:58;6.82;;;6.13;;
75012;SDS011;63567;49.956;20.130;2023-09-19T09:50:25;6.85;;;6.13;;
75012;SDS011;63567;49.956;20.130;2023-09-19T09:52:54;6.90;;;6.20;;
75012;SDS011;63567;49.956;20.130;2023-09-19T09:55:28;6.93;;;5.97;;
75012;SDS011;63567;49.956;20.130;2023-09-19T09:58:15;6.13;;;5.60;;
75012;SDS011;63567;49.956;20.130;2023-09-19T10:00:52;5.97;;;5.38;;
75012;SDS011;63567;49.956;20.130;2023-09-19T10:03:30;6.45;;;5.85;;
75012;SDS011;63567;49.956;20.130;2023-09-19T10:05:57;6.55;;;5.82;;
75012;SDS011;63567;49.956;20.130;2023-09-19T10:08:23;6.30;;;5.70;;
75012;SDS011;63567;49.956;20.130;2023-09-19T10:10:48;6.70;;;6.00;;
75012;SDS011;63567;49.956;20.130;2023-09-19T10:13:28;5.78;;;4.90;;
75012;SDS011;63567;49.956;20.130;2023-09-19T10:15:55;6.47;;;5.45;;
75012;SDS011;63567;49.956;20.130;2023-09-19T10:18:24;5.55;;;5.05;;
75012;SDS011;63567;49.956;20.130;2023-09-19T10:20:51;6.65;;;5.13;;
75012;SDS011;63567;49.956;20.130;2023-09-19T10:23:17;6.15;;;5.28;;
75012;SDS011;63567;49.956;20.130;2023-09-19T10:25:48;5.68;;;4.78;;
75012;SDS011;63567;49.956;20.130;2023-09-19T10:28:16;5.63;;;4.75;;
75012;SDS011;63567;49.956;20.130;2023-09-19T10:30:46;5.03;;;4.53;;
75012;SDS011;63567;49.956;20.130;2023-09-19T10:33:16;5.13;;;4.63;;
75012;SDS011;63567;49.956;20.130;2023-09-19T10:35:46;5.82;;;4.80;;
75012;SDS011;63567;49.956;20.130;2023-09-19T10:38:13;5.13;;;4.63;;
75012;SDS011;63567;49.956;20.130;2023-09-19T10:40:42;5.38;;;4.57;;
75012;SDS011;63567;49.956;20.130;2023-09-19T10:43:15;4.90;;;3.88;;
75012;SDS011;63567;49.956;20.130;2023-09-19T10:48:14;6.85;;;4.47;;
75012;SDS011;63567;49.956;20.130;2023-09-19T10:58:44;5.47;;;4.97;;
75012;SDS011;63567;49.956;20.130;2023-09-19T11:01:10;5.35;;;4.85;;
75012;SDS011;63567;49.956;20.130;2023-09-19T11:03:43;6.03;;;4.80;;
75012;SDS011;63567;49.956;20.130;2023-09-19T11:06:13;5.95;;;5.35;;
75012;SDS011;63567;49.956;20.130;2023-09-19T11:08:53;5.55;;;5.00;;
75012;SDS011;63567;49.956;20.130;2023-09-19T11:11:53;5.55;;;3.95;;
75012;SDS011;63567;49.956;20.130;2023-09-19T11:23:05;5.32;;;4.60;;
75012;SDS011;63567;49.956;20.130;2023-09-19T11:30:42;6.53;;;5.93;;
75012;SDS011;63567;49.956;20.130;2023-09-19T11:33:16;6.05;;;5.40;;
75012;SDS011;63567;49.956;20.130;2023-09-19T11:36:03;7.15;;;6.55;;
75012;SDS011;63567;49.956;20.130;2023-09-19T11:44:31;6.65;;;6.05;;
75012;SDS011;63567;49.956;20.130;2023-09-19T11:49:16;5.85;;;5.05;;
75012;SDS011;63567;49.956;20.130;2023-09-19T11:51:45;6.53;;;5.93;;
75012;SDS011;63567;49.956;20.130;2023-09-19T11:54:12;5.93;;;5.32;;
75012;SDS011;63567;49.956;20.130;2023-09-19T11:56:48;6.45;;;5.85;;
75012;SDS011;63567;49.956;20.130;2023-09-19T11:59:19;4.80;;;4.30;;
75012;SDS011;63567;49.956;20.130;2023-09-19T12:01:52;5.63;;;4.13;;
75012;SDS011;63567;49.956;20.130;2023-09-19T12:04:33;5.22;;;3.80;;
75012;SDS011;63567;49.956;20.130;2023-09-19T12:07:10;5.55;;;5.05;;
75012;SDS011;63567;49.956;20.130;2023-09-19T12:09:43;5.55;;;4.68;;
75012;SDS011;63567;49.956;20.130;2023-09-19T12:12:28;5.07;;;4.55;;
75012;SDS011;63567;49.956;20.130;2023-09-19T12:14:55;5.68;;;4.40;;
75012;SDS011;63567;49.956;20.130;2023-09-19T12:17:23;5.50;;;4.55;;
75012;SDS011;63567;49.956;20.130;2023-09-19T12:20:00;5.35;;;4.82;;
75012;SDS011;63567;49.956;20.130;2023-09-19T12:25:08;4.97;;;4.47;;
75012;SDS011;63567;49.956;20.130;2023-09-19T12:27:45;5.05;;;4.43;;
75012;SDS011;63567;49.956;20.130;2023-09-19T12:30:14;6.32;;;5.22;;
75012;SDS011;63567;49.956;20.130;2023-09-19T12:32:42;5.50;;;4.68;;
75012;SDS011;63567;49.956;20.130;2023-09-19T12:35:09;5.25;;;4.75;;
75012;SDS011;63567;49.956;20.130;2023-09-19T12:37:36;7.57;;;7.00;;
75012;SDS011;63567;49.956;20.130;2023-09-19T12:40:08;6.13;;;5.22;;
75012;SDS011;63567;49.956;20.130;2023-09-19T12:42:47;5.78;;;4.63;;
75012;SDS011;63567;49.956;20.130;2023-09-19T12:45:14;5.13;;;4.63;;
75012;SDS011;63567;49.956;20.130;2023-09-19T12:47:40;6.53;;;5.22;;
75012;SDS011;63567;49.956;20.130;2023-09-19T12:50:25;5.30;;;3.72;;
75012;SDS011;63567;49.956;20.130;2023-09-19T12:52:54;6.53;;;4.90;;
75012;SDS011;63567;49.956;20.130;2023-09-19T12:55:25;5.50;;;4.40;;
75012;SDS011;63567;49.956;20.130;2023-09-19T13:00:43;5.93;;;5.20;;
75012;SDS011;63567;49.956;20.130;2023-09-19T13:03:13;5.18;;;4.68;;
75012;SDS011;63567;49.956;20.130;2023-09-19T13:05:47;5.53;;;5.03;;
75012;SDS011;63567;49.956;20.130;2023-09-19T13:08:18;5.70;;;4.25;;
75012;SDS011;63567;49.956;20.130;2023-09-19T13:16:20;6.63;;;6.03;;
75012;SDS011;63567;49.956;20.130;2023-09-19T13:18:53;5.80;;;4.82;;
75012;SDS011;63567;49.956;20.130;2023-09-19T13:21:34;6.88;;;6.25;;
75012;SDS011;63567;49.956;20.130;2023-09-19T13:24:20;7.75;;;7.15;;
75012;SDS011;63567;49.956;20.130;2023-09-19T13:26:50;6.68;;;6.07;;
75012;SDS011;63567;49.956;20.130;2023-09-19T13:29:16;7.07;;;6.40;;
75012;SDS011;63567;49.956;20.130;2023-09-19T13:31:49;6.70;;;6.10;;
75012;SDS011;63567;49.956;20.130;2023-09-19T13:34:18;5.72;;;4.80;;
75012;SDS011;63567;49.956;20.130;2023-09-19T13:36:44;6.82;;;6.22;;
75012;SDS011;63567;49.956;20.130;2023-09-19T13:39:12;7.13;;;6.53;;
75012;SDS011;63567;49.956;20.130;2023-09-19T13:41:49;6.03;;;5.43;;
75012;SDS011;63567;49.956;20.130;2023-09-19T13:44:14;7.47;;;6.78;;
75012;SDS011;63567;49.956;20.130;2023-09-19T13:46:41;7.70;;;6.85;;
75012;SDS011;63567;49.956;20.130;2023-09-19T13:49:10;6.70;;;6.10;;
75012;SDS011;63567;49.956;20.130;2023-09-19T13:51:36;7.15;;;6.55;;
75012;SDS011;63567;49.956;20.130;2023-09-19T13:54:02;7.68;;;6.88;;
75012;SDS011;63567;49.956;20.130;2023-09-19T13:56:27;7.10;;;6.40;;
75012;SDS011;63567;49.956;20.130;2023-09-19T13:58:53;9.52;;;8.82;;
75012;SDS011;63567;49.956;20.130;2023-09-19T14:01:19;8.55;;;6.80;;
75012;SDS011;63567;49.956;20.130;2023-09-19T14:03:44;7.55;;;6.85;;
75012;SDS011;63567;49.956;20.130;2023-09-19T14:06:16;7.32;;;6.53;;
75012;SDS011;63567;49.956;20.130;2023-09-19T14:08:42;7.07;;;6.38;;
75012;SDS011;63567;49.956;20.130;2023-09-19T14:11:12;7.78;;;6.97;;
75012;SDS011;63567;49.956;20.130;2023-09-19T14:13:37;7.07;;;6.38;;
75012;SDS011;63567;49.956;20.130;2023-09-19T14:16:03;6.80;;;6.17;;
75012;SDS011;63567;49.956;20.130;2023-09-19T14:18:33;7.95;;;7.25;;
75012;SDS011;63567;49.956;20.130;2023-09-19T14:21:02;8.23;;;7.53;;
75012;SDS011;63567;49.956;20.130;2023-09-19T14:23:28;6.88;;;6.28;;
75012;SDS011;63567;49.956;20.130;2023-09-19T14:25:54;8.27;;;7.57;;
75012;SDS011;63567;49.956;20.130;2023-09-19T14:28:19;8.33;;;7.47;;
75012;SDS011;63567;49.956;20.130;2023-09-19T14:30:44;8.27;;;7.57;;
75012;SDS011;63567;49.956;20.130;2023-09-19T14:33:11;7.93;;;7.07;;
75012;SDS011;63567;49.956;20.130;2023-09-19T14:35:37;8.73;;;7.90;;
75012;SDS011;63567;49.956;20.130;2023-09-19T14:38:03;8.10;;;7.40;;
75012;SDS011;63567;49.956;20.130;2023-09-19T14:40:28;7.72;;;6.93;;
75012;SDS011;63567;49.956;20.130;2023-09-19T14:42:53;7.90;;;7.20;;
75012;SDS011;63567;49.956;20.130;2023-09-19T14:45:19;8.57;;;7.72;;
75012;SDS011;63567;49.956;20.130;2023-09-19T14:47:45;8.07;;;7.27;;
75012;SDS011;63567;49.956;20.130;2023-09-19T14:50:12;8.80;;;8.00;;
75012;SDS011;63567;49.956;20.130;2023-09-19T14:52:37;8.55;;;6.70;;
75012;SDS011;63567;49.956;20.130;2023-09-19T14:55:04;9.02;;;8.10;;
75012;SDS011;63567;49.956;20.130;2023-09-19T14:57:31;8.13;;;7.43;;
75012;SDS011;63567;49.956;20.130;2023-09-19T14:59:56;8.97;;;8.07;;
75012;SDS011;63567;49.956;20.130;2023-09-19T15:02:21;7.85;;;7.15;;
75012;SDS011;63567;49.956;20.130;2023-09-19T15:04:46;9.27;;;7.90;;
75012;SDS011;63567;49.956;20.130;2023-09-19T15:07:15;8.40;;;7.57;;
75012;SDS011;63567;49.956;20.130;2023-09-19T15:09:43;8.93;;;8.13;;
75012;SDS011;63567;49.956;20.130;2023-09-19T15:12:09;8.13;;;7.43;;
75012;SDS011;63567;49.956;20.130;2023-09-19T15:14:39;8.50;;;7.70;;
75012;SDS011;63567;49.956;20.130;2023-09-19T15:17:06;8.80;;;8.00;;
75012;SDS011;63567;49.956;20.130;2023-09-19T15:19:31;8.43;;;7.60;;
75012;SDS011;63567;49.956;20.130;2023-09-19T15:21:56;8.83;;;8.03;;
75012;SDS011;63567;49.956;20.130;2023-09-19T15:24:22;8.57;;;7.78;;
75012;SDS011;63567;49.956;20.130;2023-09-19T15:26:48;8.83;;;8.00;;
75012;SDS011;63567;49.956;20.130;2023-09-19T15:29:13;8.73;;;7.93;;
75012;SDS011;63567;49.956;20.130;2023-09-19T15:31:39;8.63;;;7.78;;
75012;SDS011;63567;49.956;20.130;2023-09-19T15:34:05;7.80;;;7.10;;